Time;durP1;ratioP1;P1;durP2;ratioP2;P2;SDS_P1;SDS_P2;PMS_P1;PMS_P2;Temp;Humidity;BMP_temperature;BMP_pressure;BME280_temperature;BME280_humidity;BME280_pressure;Samples;Min_cycle;Max_cycle;Signal;HPM_P1;HPM_P2
2024/02/27 00:00:49;;;;;;;;;48.50;38.00;;;;;13.14;100.00;98157.72;6045431;28;96291;-53
2024/02/27 00:03:52;;;;;;;;;44.40;36.80;;;;;13.14;100.00;98165.81;6044159;28;97686;-53
2024/02/27 00:06:56;;;;;;;;;46.25;38.75;;;;;13.13;100.00;98166.91;6028499;28;96470;-53
2024/02/27 00:10:00;;;;;;;;;45.00;35.50;;;;;13.10;100.00;98166.53;6050302;28;96539;-53
2024/02/27 00:13:03;;;;;;;;;46.60;37.80;;;;;13.03;100.00;98166.75;6045384;28;97601;-53
2024/02/27 00:16:07;;;;;;;;;42.20;35.80;;;;;12.96;100.00;98168.84;6044809;28;96600;-53
2024/02/27 00:19:10;;;;;;;;;41.40;32.60;;;;;12.88;100.00;98172.81;6049494;28;96350;-53
2024/02/27 00:22:16;;;;;;;;;39.50;33.50;;;;;12.67;100.00;98165.53;6047078;28;96300;-53
2024/02/27 00:25:19;;;;;;;;;45.00;36.00;;;;;12.70;100.00;98175.88;6032269;28;96824;-55
2024/02/27 00:28:25;;;;;;;;;48.40;39.00;;;;;12.50;100.00;98178.31;6052340;28;96884;-55
2024/02/27 00:31:28;;;;;;;;;48.00;39.00;;;;;12.40;100.00;98170.88;6053454;28;96406;-55
2024/02/27 00:34:31;;;;;;;;;48.00;39.00;;;;;12.36;100.00;98177.06;6063100;28;96299;-55
2024/02/27 00:37:35;;;;;;;;;47.20;37.20;;;;;12.34;100.00;98180.00;6057118;28;97210;-55
2024/02/27 00:40:39;;;;;;;;;47.00;39.00;;;;;12.31;100.00;98185.91;6073197;28;97023;-55
2024/02/27 00:43:42;;;;;;;;;47.60;39.60;;;;;12.29;100.00;98192.63;6075688;28;96265;-55
2024/02/27 00:46:45;;;;;;;;;50.00;39.75;;;;;12.26;100.00;98185.03;6058066;28;96620;-55
2024/02/27 00:49:48;;;;;;;;;49.00;40.00;;;;;12.24;100.00;98190.66;6054055;28;96436;-55
2024/02/27 00:52:53;;;;;;;;;49.00;39.00;;;;;12.16;100.00;98191.09;6053465;28;96320;-55
2024/02/27 00:55:56;;;;;;;;;47.00;39.00;;;;;12.03;100.00;98186.84;6037312;28;96521;-55
2024/02/27 00:58:59;;;;;;;;;46.80;36.00;;;;;11.97;100.00;98182.44;6068429;28;96276;-55
2024/02/27 01:02:02;;;;;;;;;40.80;34.00;;;;;11.91;100.00;98188.84;6060786;28;96961;-55
2024/02/27 01:05:06;;;;;;;;;42.60;33.80;;;;;11.74;100.00;98193.41;6059242;28;96426;-55
2024/02/27 01:08:11;;;;;;;;;45.00;36.00;;;;;11.69;100.00;98186.03;6057156;28;98868;-55
2024/02/27 01:11:14;;;;;;;;;47.00;39.00;;;;;11.68;100.00;98191.66;6063246;28;96473;-55
2024/02/27 01:14:18;;;;;;;;;48.60;39.00;;;;;11.54;100.00;98184.94;6050591;28;96692;-55
2024/02/27 01:17:21;;;;;;;;;45.00;37.00;;;;;11.60;100.00;98186.69;6054010;28;96652;-55
2024/02/27 01:20:24;;;;;;;;;52.00;42.75;;;;;11.49;100.00;98199.19;6053348;28;96392;-55
2024/02/27 01:23:29;;;;;;;;;47.20;39.80;;;;;11.49;100.00;98180.28;6068782;28;96747;-55
2024/02/27 01:26:32;;;;;;;;;47.00;39.40;;;;;11.53;100.00;98192.22;6073696;28;97584;-55
2024/02/27 01:29:35;;;;;;;;;50.25;41.25;;;;;11.52;100.00;98182.53;6046353;28;97409;-55
2024/02/27 01:32:39;;;;;;;;;48.50;39.00;;;;;11.54;100.00;98184.94;6057567;28;96373;-55
2024/02/27 01:35:42;;;;;;;;;51.20;40.40;;;;;11.57;100.00;98185.31;6056806;28;96353;-55
2024/02/27 01:38:46;;;;;;;;;52.60;41.00;;;;;11.48;100.00;98183.25;6054114;28;96361;-55
2024/02/27 01:41:50;;;;;;;;;53.20;42.00;;;;;11.43;100.00;98170.50;6053497;28;97505;-55
2024/02/27 01:44:53;;;;;;;;;50.80;41.20;;;;;11.53;100.00;98164.44;6075538;28;96948;-55
2024/02/27 01:47:57;;;;;;;;;53.00;43.00;;;;;11.59;100.00;98164.25;6047315;28;97812;-55
2024/02/27 01:51:02;;;;;;;;;52.00;42.00;;;;;11.59;100.00;98163.44;6051776;28;96591;-55
2024/02/27 01:54:07;;;;;;;;;56.00;43.00;;;;;11.56;100.00;98169.34;6051586;28;97298;-53
2024/02/27 01:57:12;;;;;;;;;52.40;43.00;;;;;11.62;100.00;98171.88;6045789;28;96343;-53
2024/02/27 02:00:16;;;;;;;;;53.80;42.80;;;;;11.67;100.00;98174.66;6044928;28;96703;-53
2024/02/27 02:03:23;;;;;;;;;54.80;43.00;;;;;11.79;100.00;98185.41;6044919;28;97089;-53
2024/02/27 02:06:27;;;;;;;;;54.00;42.33;;;;;11.90;100.00;98176.41;6044738;28;96386;-53
2024/02/27 02:09:32;;;;;;;;;52.00;42.00;;;;;12.03;100.00;98192.25;6045155;28;96373;-53
2024/02/27 02:12:35;;;;;;;;;51.80;43.00;;;;;12.11;100.00;98197.25;6045906;28;96334;-53
2024/02/27 02:15:38;;;;;;;;;55.50;44.00;;;;;12.10;100.00;98194.78;6060022;28;96361;-53
2024/02/27 02:18:42;;;;;;;;;57.25;44.00;;;;;12.13;100.00;98207.78;6045081;28;96668;-53
2024/02/27 02:21:50;;;;;;;;;56.00;43.80;;;;;12.11;100.00;98216.16;6045471;28;96596;-53
2024/02/27 02:24:53;;;;;;;;;50.80;41.00;;;;;12.01;100.00;98213.31;6052058;28;97069;-53
2024/02/27 02:27:56;;;;;;;;;49.20;39.80;;;;;11.81;100.00;98198.66;6044533;28;96336;-53
2024/02/27 02:31:00;;;;;;;;;49.00;41.00;;;;;11.95;100.00;98211.59;6044721;28;96639;-53
2024/02/27 02:34:03;;;;;;;;;50.40;41.40;;;;;11.95;100.00;98210.78;6044818;28;96337;-52
2024/02/27 02:37:07;;;;;;;;;49.00;39.60;;;;;11.95;100.00;98219.69;6048993;28;96352;-52
2024/02/27 02:40:12;;;;;;;;;52.00;42.00;;;;;11.90;100.00;98218.78;6061501;28;96348;-53
2024/02/27 02:43:15;;;;;;;;;51.00;42.00;;;;;11.86;100.00;98218.47;6031863;28;97812;-53
2024/02/27 02:46:18;;;;;;;;;50.00;40.00;;;;;11.87;100.00;98212.00;6045965;28;96383;-53
2024/02/27 02:49:21;;;;;;;;;49.80;40.00;;;;;11.84;100.00;98222.47;6058898;28;96512;-53
2024/02/27 02:52:26;;;;;;;;;49.25;40.75;;;;;11.80;100.00;98224.03;6054497;28;97064;-53
2024/02/27 02:55:29;;;;;;;;;49.00;40.00;;;;;11.80;100.00;98229.44;6043522;28;96719;-53
2024/02/27 02:58:32;;;;;;;;;47.00;39.40;;;;;11.77;100.00;98230.75;6053780;28;96364;-53
2024/02/27 03:01:35;;;;;;;;;50.40;40.80;;;;;11.76;100.00;98237.22;6052038;28;96334;-53
2024/02/27 03:04:38;;;;;;;;;53.80;43.00;;;;;11.72;100.00;98230.63;6048274;28;96603;-54
2024/02/27 03:07:43;;;;;;;;;55.00;43.00;;;;;11.66;100.00;98223.50;6048019;28;98317;-54
2024/02/27 03:10:46;;;;;;;;;56.00;44.00;;;;;11.69;100.00;98223.00;6048742;28;96277;-54
2024/02/27 03:13:49;;;;;;;;;53.00;42.00;;;;;11.71;100.00;98234.41;6025562;28;97072;-54
2024/02/27 03:16:54;;;;;;;;;55.60;44.00;;;;;11.73;100.00;98247.69;6037124;28;96592;-54
2024/02/27 03:19:57;;;;;;;;;59.40;46.00;;;;;11.79;100.00;98241.28;6032178;28;96584;-54
2024/02/27 03:23:01;;;;;;;;;60.60;46.60;;;;;11.70;100.00;98230.06;6042321;28;96648;-54
2024/02/27 03:26:05;;;;;;;;;61.40;47.60;;;;;11.84;100.00;98247.59;6042646;28;96274;-54
2024/02/27 03:29:08;;;;;;;;;61.60;47.00;;;;;11.86;100.00;98256.28;6043193;28;97263;-54
2024/02/27 03:32:11;;;;;;;;;60.50;46.00;;;;;11.98;100.00;98264.28;6042191;28;96285;-54
2024/02/27 03:35:14;;;;;;;;;57.80;46.00;;;;;12.04;100.00;98282.22;6047309;28;96298;-54
2024/02/27 03:38:18;;;;;;;;;56.40;45.20;;;;;12.11;100.00;98263.97;6066902;28;97124;-54
2024/02/27 03:41:21;;;;;;;;;60.00;46.40;;;;;12.15;100.00;98262.41;6052682;28;96289;-55
2024/02/27 03:44:25;;;;;;;;;58.00;46.00;;;;;12.10;100.00;98271.25;6069833;28;97075;-54
2024/02/27 03:47:28;;;;;;;;;58.00;45.50;;;;;12.07;100.00;98276.34;6069862;28;96366;-54
2024/02/27 03:50:31;;;;;;;;;56.40;44.00;;;;;12.02;100.00;98276.28;6053056;28;97445;-54
2024/02/27 03:53:35;;;;;;;;;56.00;45.00;;;;;12.10;100.00;98273.97;6053134;28;96315;-54
2024/02/27 03:56:39;;;;;;;;;58.00;45.80;;;;;12.22;100.00;98268.44;6051621;28;96355;-54
2024/02/27 03:59:42;;;;;;;;;56.40;44.00;;;;;12.33;100.00;98270.25;6063318;28;96393;-54
2024/02/27 04:02:45;;;;;;;;;60.40;46.00;;;;;12.39;100.00;98260.34;6047525;28;96751;-54
2024/02/27 04:05:48;;;;;;;;;62.00;47.00;;;;;12.50;100.00;98267.53;6045171;28;96454;-54
2024/02/27 04:08:53;;;;;;;;;60.60;46.60;;;;;12.53;100.00;98270.53;6045983;28;96580;-54
2024/02/27 04:11:56;;;;;;;;;63.60;49.00;;;;;12.44;100.00;98252.31;6044740;28;96331;-54
2024/02/27 04:14:59;;;;;;;;;62.80;49.80;;;;;12.64;100.00;98274.22;6046843;28;96439;-54
2024/02/27 04:18:03;;;;;;;;;62.75;48.25;;;;;12.59;100.00;98276.84;6046211;28;96380;-53
2024/02/27 04:21:06;;;;;;;;;60.25;46.75;;;;;12.59;100.00;98277.66;6046654;28;96568;-53
2024/02/27 04:24:11;;;;;;;;;60.20;46.00;;;;;12.43;100.00;98281.22;6046165;28;96313;-55
2024/02/27 04:27:14;;;;;;;;;61.00;47.00;;;;;12.33;100.00;98272.13;6052550;28;98906;-53
2024/02/27 04:30:17;;;;;;;;;58.00;44.40;;;;;12.42;100.00;98287.69;6046697;28;96445;-54
2024/02/27 04:33:20;;;;;;;;;58.00;46.00;;;;;12.43;100.00;98286.63;6029816;28;96407;-52
2024/02/27 04:36:23;;;;;;;;;57.50;46.50;;;;;12.42;100.00;98286.84;6046325;28;96363;-53
2024/02/27 04:39:28;;;;;;;;;58.75;45.50;;;;;12.21;100.00;98279.53;6046720;28;96271;-53
2024/02/27 04:42:31;;;;;;;;;57.00;46.00;;;;;12.27;100.00;98290.16;6054486;28;97415;-53
2024/02/27 04:45:34;;;;;;;;;56.00;45.00;;;;;12.31;100.00;98295.91;6056477;28;96481;-53
2024/02/27 04:48:38;;;;;;;;;57.00;46.00;;;;;12.37;100.00;98279.50;6043698;28;97032;-53
2024/02/27 04:51:42;;;;;;;;;57.00;46.00;;;;;12.39;100.00;98263.84;6044531;28;97488;-53
2024/02/27 04:54:47;;;;;;;;;57.60;45.00;;;;;12.32;100.00;98263.19;6042208;28;97014;-53
2024/02/27 04:57:50;;;;;;;;;57.00;44.00;;;;;12.38;100.00;98264.91;6027572;28;96784;-53
2024/02/27 05:00:53;;;;;;;;;56.00;44.00;;;;;12.40;100.00;98268.19;6043965;28;96696;-53
2024/02/27 05:03:56;;;;;;;;;55.80;44.00;;;;;12.45;100.00;98291.78;6042806;28;97753;-53
2024/02/27 05:07:00;;;;;;;;;47.20;39.00;;;;;12.51;100.00;98294.28;6051408;28;96365;-53
2024/02/27 05:10:05;;;;;;;;;52.40;40.00;;;;;12.60;100.00;98297.41;6044872;28;96713;-53
2024/02/27 05:13:08;;;;;;;;;49.80;40.00;;;;;12.71;100.00;98298.34;6042521;28;97008;-54
2024/02/27 05:16:11;;;;;;;;;46.00;38.00;;;;;12.73;100.00;98304.34;6050778;28;97518;-53
2024/02/27 05:19:15;;;;;;;;;51.00;40.00;;;;;12.76;100.00;98307.38;6044940;28;96864;-53
2024/02/27 05:22:19;;;;;;;;;48.50;38.00;;;;;12.80;100.00;98305.81;6043773;28;96307;-52
2024/02/27 05:25:23;;;;;;;;;46.00;38.00;;;;;12.78;100.00;98305.25;6043603;28;96835;-54
2024/02/27 05:28:26;;;;;;;;;46.75;38.00;;;;;12.80;100.00;98305.81;6048237;28;96823;-54
2024/02/27 05:31:31;;;;;;;;;45.00;36.20;;;;;12.58;100.00;98273.31;6026612;28;96205;-55
2024/02/27 05:34:35;;;;;;;;;47.00;38.00;;;;;12.71;100.00;98304.59;6042347;28;96743;-55
2024/02/27 05:37:38;;;;;;;;;46.40;37.40;;;;;12.63;100.00;98320.44;6042095;28;96864;-54
2024/02/27 05:40:43;;;;;;;;;46.00;39.00;;;;;12.70;100.00;98324.59;6045077;28;96732;-55
2024/02/27 05:43:47;;;;;;;;;47.40;38.00;;;;;12.68;100.00;98332.13;6048408;28;96531;-55
2024/02/27 05:46:50;;;;;;;;;45.00;35.60;;;;;12.74;100.00;98323.03;6044121;28;96342;-55
2024/02/27 05:49:53;;;;;;;;;47.00;38.00;;;;;12.70;100.00;98331.91;6045423;28;96429;-55
2024/02/27 05:52:57;;;;;;;;;43.60;36.00;;;;;12.76;100.00;98315.47;6038836;28;97168;-55
2024/02/27 05:56:02;;;;;;;;;44.75;37.25;;;;;12.80;100.00;98321.22;6045541;28;96333;-55
2024/02/27 05:59:05;;;;;;;;;42.00;35.00;;;;;12.69;100.00;98333.78;6024435;28;96538;-55
2024/02/27 06:02:08;;;;;;;;;44.00;36.00;;;;;12.73;100.00;98318.69;6040294;28;96861;-55
2024/02/27 06:05:11;;;;;;;;;39.25;34.00;;;;;12.65;100.00;98324.53;6041140;28;96483;-54
2024/02/27 06:08:15;;;;;;;;;44.00;36.00;;;;;12.64;100.00;98322.88;6026800;28;97158;-55
2024/02/27 06:11:19;;;;;;;;;42.00;35.00;;;;;12.74;100.00;98317.63;6040227;28;96721;-54
2024/02/27 06:14:23;;;;;;;;;44.40;36.00;;;;;12.83;100.00;98331.53;6042593;28;96580;-54
2024/02/27 06:17:26;;;;;;;;;41.00;35.00;;;;;12.89;100.00;98341.38;6042599;28;96644;-55
2024/02/27 06:23:51;;;;;;;;;48.40;37.40;;;;;13.22;100.00;98341.28;6035510;28;96597;-55
2024/02/27 06:26:56;;;;;;;;;41.50;34.00;;;;;13.36;100.00;98342.53;6043205;28;97610;-55
2024/02/27 06:29:59;;;;;;;;;44.40;36.40;;;;;13.53;100.00;98347.06;6043845;28;96447;-55
2024/02/27 06:33:03;;;;;;;;;43.00;35.00;;;;;13.66;100.00;98349.38;6037686;28;96730;-54
2024/02/27 06:36:07;;;;;;;;;40.60;33.00;;;;;13.83;100.00;98361.75;6029376;28;96714;-55
2024/02/27 06:39:10;;;;;;;;;37.00;32.60;;;;;13.89;100.00;98344.47;6055392;28;96703;-55
2024/02/27 06:42:14;;;;;;;;;42.00;33.00;;;;;14.21;100.00;98362.66;6043760;28;97188;-56
2024/02/27 06:45:18;;;;;;;;;44.00;36.00;;;;;14.37;100.00;98360.94;6044428;28;96443;-56
2024/02/27 06:48:21;;;;;;;;;40.60;35.00;;;;;14.50;100.00;98365.91;6045846;28;96370;-56
2024/02/27 06:51:24;;;;;;;;;41.00;35.00;;;;;14.61;100.00;98359.50;6047578;28;96278;-56
2024/02/27 06:54:27;;;;;;;;;44.60;36.40;;;;;14.78;100.00;98364.75;6029816;28;97010;-55
2024/02/27 06:57:32;;;;;;;;;43.00;36.00;;;;;14.97;100.00;98358.63;6032749;28;96761;-55
2024/02/27 07:00:35;;;;;;;;;40.40;33.00;;;;;15.04;100.00;98364.66;6046090;28;96389;-55
2024/02/27 07:03:38;;;;;;;;;38.80;33.00;;;;;15.10;100.00;98369.00;6045975;28;96677;-55
2024/02/27 07:06:42;;;;;;;;;37.40;33.00;;;;;15.15;100.00;98365.50;6063043;28;96579;-55
2024/02/27 07:09:46;;;;;;;;;38.50;32.75;;;;;15.17;100.00;98357.94;6069430;28;96329;-55
2024/02/27 07:12:50;;;;;;;;;35.00;32.00;;;;;15.40;100.00;98381.13;6070270;28;96288;-55
2024/02/27 07:15:53;;;;;;;;;38.40;33.00;;;;;15.45;100.00;98362.13;6056157;28;96369;-55
2024/02/27 07:18:57;;;;;;;;;37.00;33.00;;;;;16.00;100.00;98385.97;6073587;28;96674;-55
2024/02/27 07:22:00;;;;;;;;;40.60;33.00;;;;;16.32;100.00;98394.72;6072352;28;96889;-55
2024/02/27 07:25:04;;;;;;;;;36.00;33.00;;;;;16.43;100.00;98384.66;6067496;28;96551;-55
2024/02/27 07:28:08;;;;;;;;;39.00;32.00;;;;;16.68;100.00;98395.59;6049913;28;96304;-55
2024/02/27 07:31:22;;;;;;;;;38.75;33.00;;;;;16.73;100.00;98392.84;6049201;28;96478;-55
2024/02/27 07:34:25;;;;;;;;;42.00;36.00;;;;;16.65;100.00;98401.59;6048887;28;96194;-55
2024/02/27 07:37:28;;;;;;;;;42.33;35.00;;;;;16.78;100.00;98414.63;6049709;28;96380;-55
2024/02/27 07:40:32;;;;;;;;;41.40;35.00;;;;;16.80;100.00;98415.19;6040829;28;96658;-56
2024/02/27 07:43:39;;;;;;;;;44.20;36.40;;;;;16.74;100.00;98416.28;6049365;28;96245;-53
2024/02/27 07:46:42;;;;;;;;;45.00;37.00;;;;;16.72;100.00;98421.16;6032459;28;97359;-55
2024/02/27 07:49:46;;;;;;;;;42.00;35.00;;;;;16.73;100.00;98424.69;6052893;28;98862;-55
2024/02/27 07:52:49;;;;;;;;;44.00;36.00;;;;;16.61;100.00;98402.41;6056124;28;97436;-55
2024/02/27 07:55:52;;;;;;;;;43.75;35.00;;;;;16.70;100.00;98404.31;6055825;28;96452;-55
2024/02/27 07:58:57;;;;;;;;;46.60;38.00;;;;;16.78;100.00;98409.19;6073827;28;97237;-55
2024/02/27 08:02:01;;;;;;;;;41.80;35.00;;;;;16.91;100.00;98420.63;6056661;28;96414;-55
2024/02/27 08:05:05;;;;;;;;;44.60;35.60;;;;;17.04;100.00;98415.44;6049316;28;96536;-55
2024/02/27 08:08:08;;;;;;;;;42.20;35.00;;;;;17.31;100.00;98415.09;6067480;28;96386;-55
2024/02/27 08:11:11;;;;;;;;;41.60;33.60;;;;;17.63;100.00;98412.84;6050427;28;97177;-55
2024/02/27 08:14:17;;;;;;;;;40.25;34.00;;;;;17.93;100.00;98420.06;6049504;28;96562;-55
2024/02/27 08:17:20;;;;;;;;;41.00;34.60;;;;;18.28;100.00;98423.66;6049741;28;97036;-55
2024/02/27 08:20:23;;;;;;;;;42.40;34.00;;;;;18.85;100.00;98412.09;6049629;28;96835;-55
2024/02/27 08:23:27;;;;;;;;;40.00;34.00;;;;;19.38;100.00;98410.19;6068396;28;96353;-56
2024/02/27 08:26:31;;;;;;;;;41.00;33.50;;;;;19.71;100.00;98401.06;6072422;28;96322;-56
2024/02/27 08:29:35;;;;;;;;;43.75;35.00;;;;;19.71;100.00;98413.94;6054922;28;97089;-55
2024/02/27 08:32:38;;;;;;;;;39.60;34.00;;;;;19.45;100.00;98397.00;6049605;28;96504;-55
2024/02/27 08:35:42;;;;;;;;;44.20;36.00;;;;;19.42;100.00;98405.75;6048998;28;96629;-55
2024/02/27 08:38:45;;;;;;;;;44.60;36.00;;;;;19.36;100.00;98412.38;6048748;28;96314;-55
2024/02/27 08:41:48;;;;;;;;;44.40;36.20;;;;;19.22;100.00;98417.72;6048967;28;96305;-55
2024/02/27 08:44:53;;;;;;;;;48.00;38.00;;;;;19.13;100.00;98408.53;6046988;28;96303;-55
2024/02/27 08:47:57;;;;;;;;;44.50;35.50;;;;;19.37;100.00;98419.50;6046700;28;96423;-55
2024/02/27 08:51:00;;;;;;;;;43.40;35.00;;;;;19.62;100.00;98421.16;6046533;28;96514;-56
2024/02/27 08:54:03;;;;;;;;;41.00;35.00;;;;;19.74;100.00;98419.63;6047395;28;97057;-55
2024/02/27 08:57:06;;;;;;;;;47.00;37.00;;;;;19.77;100.00;98401.81;6056765;28;96364;-55
2024/02/27 09:00:14;;;;;;;;;44.60;36.00;;;;;20.86;100.00;98423.53;6058142;28;96909;-55
2024/02/27 09:03:18;;;;;;;;;41.40;33.00;;;;;20.90;100.00;98416.31;6042260;28;96389;-55
2024/02/27 09:06:21;;;;;;;;;44.60;36.60;;;;;21.11;100.00;98409.38;6059666;28;96312;-56
2024/02/27 09:09:24;;;;;;;;;40.75;33.50;;;;;21.56;100.00;98413.19;6041559;28;98478;-56
2024/02/27 09:12:29;;;;;;;;;41.50;35.50;;;;;21.92;100.00;98424.28;6064390;28;96383;-55
2024/02/27 09:15:33;;;;;;;;;41.00;34.00;;;;;22.78;100.00;98411.34;6059920;28;97724;-56
2024/02/27 09:18:39;;;;;;;;;38.60;33.80;;;;;24.63;100.00;98405.53;6054107;28;96316;-56
2024/02/27 09:21:42;;;;;;;;;39.75;34.75;;;;;26.74;100.00;98395.34;6051747;28;96619;-56
2024/02/27 09:24:45;;;;;;;;;43.80;35.00;;;;;28.78;99.56;98403.31;6049204;28;96465;-56
2024/02/27 09:27:49;;;;;;;;;37.50;30.75;;;;;30.72;88.41;98403.84;6048957;28;97023;-56
2024/02/27 09:30:53;;;;;;;;;40.60;34.40;;;;;32.74;76.12;98401.75;6047310;28;96276;-56
2024/02/27 09:33:56;;;;;;;;;38.00;33.00;;;;;34.75;67.38;98387.91;6048808;28;96514;-57
2024/02/27 09:37:00;;;;;;;;;36.00;31.00;;;;;36.51;61.23;98396.91;6050601;28;96291;-57
2024/02/27 09:40:04;;;;;;;;;43.40;35.00;;;;;38.09;55.03;98395.19;6034710;28;96265;-57
2024/02/27 09:43:14;;;;;;;;;42.20;35.00;;;;;39.82;51.25;98391.41;6049752;28;96988;-58
2024/02/27 09:46:21;;;;;;;;;36.50;32.00;;;;;41.26;48.28;98395.44;6049469;28;96388;-58
2024/02/27 09:49:26;;;;;;;;;42.60;35.80;;;;;42.26;44.99;98399.50;6048899;28;96288;-58
2024/02/27 09:52:44;;;;;;;;;33.80;31.20;;;;;42.96;41.95;98402.38;6031845;28;97921;-58
2024/02/27 09:55:47;;;;;;;;;31.50;29.00;;;;;43.18;40.43;98396.91;6048162;28;96387;-58
2024/02/27 09:58:51;;;;;;;;;34.80;30.20;;;;;43.44;40.00;98398.50;6060455;28;96299;-57
2024/02/27 10:02:04;;;;;;;;;33.40;29.40;;;;;43.79;39.74;98390.88;6052557;28;96985;-58
2024/02/27 10:05:08;;;;;;;;;34.00;30.00;;;;;44.49;38.21;98392.56;6046022;28;96771;-57
2024/02/27 10:08:22;;;;;;;;;32.50;28.00;;;;;45.38;36.38;98387.16;6041104;28;96367;-58
2024/02/27 10:11:26;;;;;;;;;30.50;28.50;;;;;46.39;35.72;98385.38;6043887;28;96312;-58
2024/02/27 10:14:31;;;;;;;;;30.00;28.25;;;;;47.10;32.95;98393.56;6044177;28;96412;-57
2024/02/27 10:17:37;;;;;;;;;31.00;29.00;;;;;47.86;32.13;98378.03;6044451;28;96403;-57
2024/02/27 10:20:42;;;;;;;;;32.00;29.40;;;;;48.43;32.20;98384.50;6043904;28;96766;-57
2024/02/27 10:23:46;;;;;;;;;33.00;30.00;;;;;48.83;31.44;98383.97;6042590;28;96427;-58
2024/02/27 10:26:52;;;;;;;;;29.60;27.60;;;;;48.98;29.86;98384.75;6053407;28;96384;-58
2024/02/27 10:29:56;;;;;;;;;30.20;28.40;;;;;49.03;29.72;98372.63;6043909;28;96897;-57
2024/02/27 10:33:03;;;;;;;;;31.20;29.60;;;;;48.95;28.69;98352.19;6043644;28;96382;-58
2024/02/27 10:36:10;;;;;;;;;31.00;30.00;;;;;48.85;29.48;98373.63;6043805;28;96284;-58
2024/02/27 10:39:14;;;;;;;;;31.80;29.00;;;;;49.00;29.79;98367.88;6043545;28;96551;-58
2024/02/27 10:42:17;;;;;;;;;29.00;28.60;;;;;49.26;29.30;98368.88;6043725;28;96520;-58
2024/02/27 10:45:20;;;;;;;;;30.60;29.00;;;;;49.66;29.59;98361.69;6048825;28;96869;-58
2024/02/27 10:48:24;;;;;;;;;30.00;28.00;;;;;49.57;28.86;98365.47;6043271;28;97157;-58
2024/02/27 10:51:42;;;;;;;;;28.00;26.00;;;;;49.86;28.65;98370.34;6043559;28;96349;-58
2024/02/27 10:54:46;;;;;;;;;35.20;30.00;;;;;50.47;28.93;98371.16;6043080;28;96457;-58
2024/02/27 10:57:50;;;;;;;;;29.00;27.00;;;;;51.06;27.87;98360.03;6042762;28;96233;-58
2024/02/27 11:00:54;;;;;;;;;28.50;25.75;;;;;51.45;27.56;98362.47;6042663;28;97588;-58
2024/02/27 11:04:03;;;;;;;;;28.00;27.00;;;;;51.49;27.24;98363.78;6042666;28;98059;-58
2024/02/27 11:07:07;;;;;;;;;26.75;25.75;;;;;50.30;28.05;98364.41;6042816;28;96318;-58
2024/02/27 11:10:11;;;;;;;;;29.50;25.50;;;;;47.88;28.95;98341.19;6042825;28;96398;-58
2024/02/27 11:13:20;;;;;;;;;28.00;25.20;;;;;46.58;31.00;98357.69;6042679;28;96948;-58
2024/02/27 11:16:27;;;;;;;;;27.00;26.60;;;;;45.95;31.65;98359.19;6044192;28;97086;-56
2024/02/27 11:19:35;;;;;;;;;27.60;25.60;;;;;44.90;33.17;98351.63;6044111;28;96966;-56
2024/02/27 11:22:41;;;;;;;;;30.00;28.00;;;;;44.04;34.44;98353.13;6044372;28;96336;-56
2024/02/27 11:25:44;;;;;;;;;26.60;25.00;;;;;42.95;35.25;98337.63;6043693;28;96862;-56
2024/02/27 11:28:49;;;;;;;;;32.00;29.00;;;;;41.90;36.33;98340.16;6043360;28;96551;-56
2024/02/27 11:31:53;;;;;;;;;30.40;28.00;;;;;41.59;39.11;98345.38;6043854;28;96417;-56
2024/02/27 11:34:58;;;;;;;;;29.00;27.00;;;;;41.26;39.26;98340.91;6043054;28;96333;-56
2024/02/27 11:38:02;;;;;;;;;29.20;27.20;;;;;40.16;41.28;98341.16;6042921;28;96390;-56
2024/02/27 11:41:05;;;;;;;;;30.00;28.00;;;;;38.95;43.51;98341.53;6042327;28;96307;-56
2024/02/27 11:44:09;;;;;;;;;30.00;28.00;;;;;37.54;46.61;98332.53;6043268;28;96440;-56
2024/02/27 11:47:34;;;;;;;;;33.40;30.00;;;;;35.86;50.13;98345.69;6044912;28;96282;-55
2024/02/27 11:50:48;;;;;;;;;33.00;30.80;;;;;34.65;57.09;98336.25;6042431;28;96347;-55
2024/02/27 11:53:51;;;;;;;;;31.40;30.00;;;;;33.75;57.34;98332.53;6043154;28;96913;-55
2024/02/27 11:56:55;;;;;;;;;30.40;28.60;;;;;33.08;60.82;98330.72;6043571;28;96425;-55
2024/02/27 12:00:09;;;;;;;;;32.40;29.80;;;;;33.61;62.51;98330.41;6043841;28;96444;-55
2024/02/27 12:03:12;;;;;;;;;32.00;28.60;;;;;33.80;59.70;98338.56;6049291;28;96876;-55
2024/02/27 12:06:17;;;;;;;;;34.00;30.00;;;;;34.57;56.66;98334.63;6040124;28;97073;-56
2024/02/27 12:09:25;;;;;;;;;31.33;29.00;;;;;35.28;54.90;98331.25;6053781;28;96898;-55
2024/02/27 12:12:28;;;;;;;;;28.60;27.60;;;;;36.31;54.26;98334.81;6060202;28;96277;-55
2024/02/27 12:15:32;;;;;;;;;29.20;28.20;;;;;36.42;51.89;98336.34;6034759;28;96350;-55
2024/02/27 12:18:35;;;;;;;;;27.80;25.20;;;;;36.45;50.62;98331.94;6051190;28;96753;-55
2024/02/27 12:21:40;;;;;;;;;26.40;25.60;;;;;35.84;51.20;98341.69;6042042;28;96886;-56
2024/02/27 12:24:46;;;;;;;;;26.20;24.00;;;;;35.11;50.98;98333.59;6048092;28;96815;-55
2024/02/27 12:27:54;;;;;;;;;25.40;23.40;;;;;34.54;53.35;98334.63;6045610;28;96266;-55
2024/02/27 12:30:58;;;;;;;;;26.50;24.50;;;;;33.66;57.51;98330.06;6024630;28;98910;-54
2024/02/27 12:34:02;;;;;;;;;26.40;25.00;;;;;32.96;60.52;98322.59;6047483;28;97409;-55
2024/02/27 12:37:07;;;;;;;;;25.60;23.60;;;;;32.45;63.03;98319.59;6044015;28;96612;-55
2024/02/27 12:40:13;;;;;;;;;25.00;23.40;;;;;32.20;65.97;98324.88;6045754;28;98770;-55
2024/02/27 12:43:17;;;;;;;;;26.75;23.00;;;;;31.76;65.31;98307.91;6029986;28;96678;-54
2024/02/27 12:46:23;;;;;;;;;24.00;22.00;;;;;31.45;66.35;98310.94;6037277;28;96385;-55
2024/02/27 12:49:30;;;;;;;;;25.00;23.75;;;;;31.19;70.59;98320.06;6040487;28;96684;-55
2024/02/27 12:52:35;;;;;;;;;27.33;24.33;;;;;30.75;70.76;98321.59;6045072;28;96782;-55
2024/02/27 12:55:38;;;;;;;;;25.00;24.00;;;;;30.40;71.92;98316.06;6027433;28;99323;-55
2024/02/27 12:58:43;;;;;;;;;22.60;21.00;;;;;29.49;72.50;98323.94;6044768;28;96366;-55
2024/02/27 13:01:48;;;;;;;;;24.60;21.60;;;;;29.19;76.20;98323.56;6049823;28;96466;-54
2024/02/27 13:04:52;;;;;;;;;26.50;24.00;;;;;28.87;79.17;98328.28;6031424;28;96367;-54
2024/02/27 13:07:57;;;;;;;;;25.00;23.00;;;;;28.61;79.26;98319.59;6052359;28;96610;-54
2024/02/27 13:11:00;;;;;;;;;25.00;21.00;;;;;28.50;82.65;98321.25;6046199;28;96387;-54
2024/02/27 13:14:03;;;;;;;;;26.50;25.25;;;;;28.48;83.99;98327.16;6046150;28;96413;-54
2024/02/27 13:17:07;;;;;;;;;24.00;23.00;;;;;28.51;83.61;98326.44;6046610;28;96390;-54
2024/02/27 13:20:11;;;;;;;;;26.00;23.00;;;;;28.32;82.27;98324.31;6056275;28;96347;-54
2024/02/27 13:23:16;;;;;;;;;20.60;20.00;;;;;28.26;82.75;98319.38;6054407;28;96366;-54
2024/02/27 13:26:28;;;;;;;;;24.75;23.75;;;;;28.04;84.75;98320.69;6019888;28;98476;-54
2024/02/27 13:29:34;;;;;;;;;23.60;20.60;;;;;27.71;84.96;98308.97;6013042;28;97647;-55
2024/02/27 13:32:38;;;;;;;;;23.50;22.00;;;;;27.53;86.39;98323.06;6035254;28;96683;-55
2024/02/27 13:35:41;;;;;;;;;23.00;20.20;;;;;27.28;85.98;98313.09;6049477;28;96628;-56
2024/02/27 13:38:45;;;;;;;;;24.00;22.20;;;;;27.08;91.19;98316.75;6059032;28;97192;-56
2024/02/27 13:41:50;;;;;;;;;25.80;23.20;;;;;26.91;94.84;98303.13;6042631;28;96874;-56
2024/02/27 13:44:54;;;;;;;;;25.20;22.20;;;;;27.02;93.94;98332.78;6041167;28;96508;-56
2024/02/27 13:47:57;;;;;;;;;19.25;17.25;;;;;26.86;94.79;98317.16;6047400;28;96600;-56
2024/02/27 13:51:02;;;;;;;;;21.60;20.00;;;;;26.53;92.92;98312.47;6054832;28;96215;-57
2024/02/27 13:54:08;;;;;;;;;22.40;20.00;;;;;26.06;96.51;98317.38;6066326;28;96295;-56
2024/02/27 13:57:12;;;;;;;;;21.50;19.50;;;;;25.84;98.89;98324.03;6044039;28;96315;-56
2024/02/27 14:00:17;;;;;;;;;22.60;21.00;;;;;25.47;100.00;98330.38;6056914;28;97675;-56
2024/02/27 14:03:20;;;;;;;;;22.60;21.40;;;;;25.31;100.00;98326.59;6062355;28;96969;-56